KVKS/VKS METAR and TAF weather

Enter ICAO airport designator
Station Type Date Time Source
KVKS METAR 2020/06/06 15:35 UTC NOAA

KVKS 061535Z AUTO 08006G11KT 10SM CLR 27/22 A2996 RMK A01


Station Type Date Time Source
KVKS Decoded METAR 2020/06/06 15:35 UTC NOAA

Vicksburg Municipal, MS, United States (KVKS) 32-14N 090-56W
Jun 06, 2020 - 11:35 AM EDT / 2020.06.06 1535 UTC
Wind: from the E (080 degrees) at 7 MPH (6 KT) gusting to 13 MPH (11 KT):0
Visibility: 10 mile(s):0
Sky conditions: clear
Temperature: 80 F (27 C)
Dew Point: 71 F (22 C)
Relative Humidity: 74%
Pressure (altimeter): 29.96 in. Hg (1014 hPa)
ob: KVKS 061535Z AUTO 08006G11KT 10SM CLR 27/22 A2996 RMK A01
cycle: 15

Station Type Date Time Source
KVKS TAF UTC NOAA

Error!

Example: see airport list